Time;durP1;ratioP1;P1;durP2;ratioP2;P2;SDS_P1;SDS_P2;PMS_P1;PMS_P2;Temp;Humidity;BMP_temperature;BMP_pressure;BME280_temperature;BME280_humidity;BME280_pressure;Samples;Min_cycle;Max_cycle;Signal;HPM_P1;HPM_P2
2023/05/25 00:02:03;;;;;;;17.73;13.77;;;;;;;9.88;100.00;101380.13;4993194;28;20230;-79
2023/05/25 00:04:33;;;;;;;22.43;15.47;;;;;;;9.76;100.00;101393.19;4993144;28;20233;-79
2023/05/25 00:06:59;;;;;;;22.03;14.30;;;;;;;9.77;100.00;101384.47;4993443;28;20202;-79
2023/05/25 00:09:26;;;;;;;16.93;13.57;;;;;;;9.76;100.00;101387.97;4995894;28;20269;-79
2023/05/25 00:11:52;;;;;;;16.53;14.60;;;;;;;9.85;100.00;101390.53;5006243;28;20284;-82
2023/05/25 00:14:20;;;;;;;17.13;14.77;;;;;;;9.92;100.00;101402.72;4995956;28;20214;-79
2023/05/25 00:16:47;;;;;;;21.97;15.23;;;;;;;9.88;100.00;101416.63;4995486;28;20230;-79
2023/05/25 00:19:17;;;;;;;14.17;12.67;;;;;;;9.89;100.00;101423.56;4996147;28;20224;-80
2023/05/25 00:21:47;;;;;;;16.23;14.50;;;;;;;9.91;100.00;101430.53;4995857;28;20230;-79
2023/05/25 00:24:13;;;;;;;15.70;14.07;;;;;;;9.91;100.00;101430.53;4996350;28;20214;-81
2023/05/25 00:26:40;;;;;;;15.40;13.83;;;;;;;9.90;100.00;101441.84;4996402;28;20638;-79
2023/05/25 00:29:06;;;;;;;14.73;13.43;;;;;;;9.92;100.00;101437.47;4996306;28;20211;-79
2023/05/25 00:31:35;;;;;;;21.90;14.67;;;;;;;9.93;100.00;101443.59;4996028;28;20245;-79
2023/05/25 00:34:01;;;;;;;16.93;14.40;;;;;;;9.99;100.00;101447.91;4995935;28;20566;-80
2023/05/25 00:36:28;;;;;;;25.80;16.37;;;;;;;10.02;100.00;101453.16;4995742;28;20213;-80
2023/05/25 00:38:54;;;;;;;19.37;14.97;;;;;;;10.01;100.00;101460.09;4996611;28;20230;-80
2023/05/25 00:41:21;;;;;;;16.70;13.33;;;;;;;9.98;100.00;101465.31;4996145;28;20259;-79
2023/05/25 00:43:48;;;;;;;16.33;14.00;;;;;;;9.97;100.00;101460.09;4996397;28;20689;-79
2023/05/25 00:46:15;;;;;;;16.97;14.63;;;;;;;9.98;100.00;101460.09;4995976;28;20583;-80
2023/05/25 00:48:43;;;;;;;26.33;14.50;;;;;;;9.98;100.00;101467.06;4996660;28;20281;-80
2023/05/25 00:51:10;;;;;;;14.50;13.00;;;;;;;9.88;100.00;101466.19;4996404;28;20240;-81
2023/05/25 00:53:37;;;;;;;16.43;14.30;;;;;;;9.86;100.00;101466.19;4996700;28;20288;-79
2023/05/25 00:56:08;;;;;;;18.60;14.30;;;;;;;9.77;100.00;101473.13;4996214;28;20232;-79
2023/05/25 00:58:37;;;;;;;24.13;14.40;;;;;;;9.73;100.00;101473.13;4996334;28;20800;-80
2023/05/25 01:01:05;;;;;;;17.97;15.57;;;;;;;9.67;100.00;101454.00;4996430;28;20231;-80
2023/05/25 01:03:36;;;;;;;23.57;17.33;;;;;;;9.32;100.00;101419.19;4996834;28;20258;-80
2023/05/25 01:06:09;;;;;;;27.63;18.07;;;;;;;9.19;100.00;101388.75;4996349;28;20218;-79
2023/05/25 01:08:38;;;;;;;23.23;16.43;;;;;;;9.15;100.00;101369.66;4996595;28;20222;-79
2023/05/25 01:11:06;;;;;;;18.53;16.07;;;;;;;9.22;100.00;101360.13;4996604;28;20285;-79
2023/05/25 01:13:36;;;;;;;21.20;15.73;;;;;;;9.30;100.00;101347.13;4996765;28;20222;-80
2023/05/25 01:16:04;;;;;;;21.20;16.03;;;;;;;9.38;100.00;101350.59;4998461;28;20210;-80
2023/05/25 01:18:32;;;;;;;23.23;16.50;;;;;;;9.34;100.00;101362.75;4999905;28;20228;-80
2023/05/25 01:21:11;;;;;;;24.67;16.37;;;;;;;9.28;100.00;101367.09;4999797;28;20640;-79
2023/05/25 01:23:42;;;;;;;23.10;15.70;;;;;;;9.06;100.00;101366.19;5005351;28;20283;-82
2023/05/25 01:26:12;;;;;;;22.00;15.60;;;;;;;8.99;100.00;101357.47;5005656;28;20623;-79
2023/05/25 01:28:45;;;;;;;20.57;16.87;;;;;;;8.88;100.00;101333.13;5002587;28;20227;-79
2023/05/25 01:31:14;;;;;;;19.37;16.00;;;;;;;8.82;100.00;101327.91;5005815;28;20278;-81
2023/05/25 01:33:43;;;;;;;19.37;16.30;;;;;;;8.83;100.00;101311.44;5015454;28;20235;-81
2023/05/25 01:36:11;;;;;;;20.20;16.60;;;;;;;8.91;100.00;101304.50;4999312;28;20214;-81
2023/05/25 01:38:37;;;;;;;21.33;15.83;;;;;;;8.89;100.00;101311.44;5009359;28;20237;-81
2023/05/25 01:41:04;;;;;;;23.47;17.57;;;;;;;8.90;100.00;101313.16;5014623;28;20293;-81
2023/05/25 01:43:30;;;;;;;22.37;15.83;;;;;;;8.94;100.00;101301.94;5005661;28;20210;-79
2023/05/25 01:46:06;;;;;;;22.20;16.50;;;;;;;8.87;100.00;101310.56;4994894;28;20688;-79
2023/05/25 01:48:41;;;;;;;21.63;16.10;;;;;;;8.65;100.00;101307.06;4995414;28;20206;-79
2023/05/25 01:51:19;;;;;;;20.93;15.90;;;;;;;8.71;100.00;101301.88;4995275;28;20711;-79
2023/05/25 01:53:52;;;;;;;19.73;16.53;;;;;;;8.74;100.00;101296.66;4995245;28;20220;-79
2023/05/25 01:56:22;;;;;;;21.10;15.63;;;;;;;8.69;100.00;101296.66;4995128;28;20214;-81
2023/05/25 01:58:51;;;;;;;24.37;16.43;;;;;;;8.70;100.00;101290.59;4995057;28;20710;-79
2023/05/25 02:01:19;;;;;;;23.30;17.47;;;;;;;8.61;100.00;101287.09;4994915;28;20229;-79
2023/05/25 02:03:47;;;;;;;24.40;17.47;;;;;;;8.54;100.00;101267.97;4995110;28;20272;-79
2023/05/25 02:06:15;;;;;;;21.60;17.37;;;;;;;8.56;100.00;101261.03;4994613;28;20261;-79
2023/05/25 02:08:44;;;;;;;23.80;16.73;;;;;;;8.70;100.00;101253.25;4995810;28;20686;-79
2023/05/25 02:11:13;;;;;;;17.83;15.67;;;;;;;8.73;100.00;101261.94;4998786;28;20266;-79
2023/05/25 02:13:39;;;;;;;17.00;15.07;;;;;;;8.75;100.00;101285.38;4995084;28;20264;-79
2023/05/25 02:16:06;;;;;;;25.87;16.27;;;;;;;8.58;100.00;101287.94;4994668;28;20602;-79
2023/05/25 02:18:33;;;;;;;20.07;15.17;;;;;;;8.71;100.00;101291.44;4994384;28;20227;-79
2023/05/25 02:20:59;;;;;;;21.17;14.20;;;;;;;8.82;100.00;101304.47;4994774;28;20228;-79
2023/05/25 02:23:26;;;;;;;15.93;14.27;;;;;;;8.86;100.00;101301.00;4994715;28;20597;-79
2023/05/25 02:25:54;;;;;;;16.40;13.97;;;;;;;8.87;100.00;101318.38;4993750;28;20213;-79
2023/05/25 02:28:21;;;;;;;15.67;14.10;;;;;;;8.86;100.00;101330.53;4993938;28;20256;-79
2023/05/25 02:30:47;;;;;;;16.93;15.30;;;;;;;8.84;100.00;101342.69;4997529;28;20289;-80
2023/05/25 02:33:14;;;;;;;19.23;14.27;;;;;;;8.86;100.00;101343.56;4997925;28;20210;-80
2023/05/25 02:35:40;;;;;;;19.37;13.83;;;;;;;8.95;100.00;101353.97;4994909;28;20578;-79
2023/05/25 02:38:06;;;;;;;19.90;14.70;;;;;;;8.78;100.00;101360.91;4994354;28;20239;-79
2023/05/25 02:40:33;;;;;;;20.23;14.57;;;;;;;8.78;100.00;101349.59;4996952;28;20225;-80
2023/05/25 02:43:00;;;;;;;21.37;15.63;;;;;;;8.72;100.00;101334.81;4997745;28;20213;-79
2023/05/25 02:45:27;;;;;;;15.83;14.07;;;;;;;8.78;100.00;101332.25;4995227;28;20264;-79
2023/05/25 02:47:53;;;;;;;19.10;15.73;;;;;;;8.69;100.00;101338.28;4993910;28;20589;-79
2023/05/25 02:50:20;;;;;;;16.70;14.83;;;;;;;8.77;100.00;101342.66;4993682;28;20236;-79
2023/05/25 02:52:46;;;;;;;21.83;14.90;;;;;;;8.79;100.00;101348.75;4994149;28;20226;-79
2023/05/25 02:55:13;;;;;;;19.17;14.57;;;;;;;8.85;100.00;101347.00;4995366;28;20300;-78
2023/05/25 02:57:39;;;;;;;18.50;14.87;;;;;;;8.69;100.00;101353.91;4995332;28;20757;-79
2023/05/25 03:00:10;;;;;;;18.27;14.93;;;;;;;8.69;100.00;101320.06;4994006;28;20219;-79
2023/05/25 03:02:36;;;;;;;21.03;15.40;;;;;;;8.78;100.00;101316.66;4997629;28;20218;-79
2023/05/25 03:05:03;;;;;;;19.43;15.53;;;;;;;8.88;100.00;101312.31;4994303;28;20211;-79
2023/05/25 03:07:29;;;;;;;19.47;14.87;;;;;;;8.87;100.00;101310.56;4993987;28;20216;-79
2023/05/25 03:09:56;;;;;;;26.07;16.13;;;;;;;8.76;100.00;101323.59;4993959;28;20627;-79
2023/05/25 03:12:23;;;;;;;25.27;16.90;;;;;;;8.55;100.00;101313.97;4993996;28;20217;-79
2023/05/25 03:14:49;;;;;;;22.33;17.47;;;;;;;8.31;100.00;101286.09;4993658;28;20905;-81
2023/05/25 03:17:17;;;;;;;27.33;16.80;;;;;;;8.22;100.00;101257.44;4993706;28;20244;-81
2023/05/25 03:19:43;;;;;;;33.40;16.77;;;;;;;8.10;100.00;101246.09;4993328;28;20277;-81
2023/05/25 03:22:10;;;;;;;27.47;17.57;;;;;;;8.06;100.00;101233.97;4993383;28;20230;-80
2023/05/25 03:24:40;;;;;;;30.57;17.97;;;;;;;8.07;100.00;101225.31;4993591;28;20213;-80
2023/05/25 03:27:06;;;;;;;24.80;17.80;;;;;;;8.14;100.00;101228.78;4993634;28;20226;-81
2023/05/25 03:29:33;;;;;;;41.83;18.87;;;;;;;8.18;100.00;101233.13;4997269;28;20235;-81
2023/05/25 03:31:59;;;;;;;34.87;17.77;;;;;;;8.22;100.00;101241.81;4997989;28;20293;-81
2023/05/25 03:34:27;;;;;;;26.33;17.90;;;;;;;8.36;100.00;101240.13;4993939;28;20204;-81
2023/05/25 03:36:54;;;;;;;30.60;17.77;;;;;;;8.41;100.00;101245.38;4993099;28;20212;-81
2023/05/25 03:39:21;;;;;;;28.57;17.77;;;;;;;8.37;100.00;101259.25;4995087;28;20270;-81
2023/05/25 03:41:47;;;;;;;25.20;17.27;;;;;;;8.28;100.00;101267.84;4993776;28;20748;-81
2023/05/25 03:44:14;;;;;;;27.00;17.80;;;;;;;8.28;100.00;101266.13;4993219;28;20204;-81
2023/05/25 03:46:40;;;;;;;25.63;17.67;;;;;;;8.35;100.00;101278.28;4994288;28;20227;-81
2023/05/25 03:49:07;;;;;;;23.83;16.67;;;;;;;8.43;100.00;101274.91;4996653;28;20204;-79
2023/05/25 03:51:35;;;;;;;21.53;17.90;;;;;;;8.51;100.00;101287.06;4997001;28;20248;-79
2023/05/25 03:54:01;;;;;;;21.43;16.53;;;;;;;8.56;100.00;101294.88;4997227;28;20628;-78
2023/05/25 03:56:28;;;;;;;26.90;16.83;;;;;;;8.62;100.00;101300.13;4997268;28;20214;-81
2023/05/25 03:58:54;;;;;;;27.90;17.50;;;;;;;8.66;100.00;101313.97;4993327;28;20814;-79
2023/05/25 04:01:20;;;;;;;24.00;16.23;;;;;;;8.78;100.00;101314.03;4993268;28;20263;-79
2023/05/25 04:03:47;;;;;;;21.03;15.27;;;;;;;8.97;100.00;101316.66;4993301;28;20795;-79
2023/05/25 04:06:18;;;;;;;19.43;16.27;;;;;;;8.99;100.00;101331.44;4993146;28;20237;-80
2023/05/25 04:08:46;;;;;;;29.80;17.37;;;;;;;9.05;100.00;101334.03;4996169;28;20210;-80
2023/05/25 04:11:13;;;;;;;21.07;17.20;;;;;;;8.86;100.00;101348.78;4995539;28;20233;-79
2023/05/25 04:13:39;;;;;;;23.83;16.37;;;;;;;8.90;100.00;101341.81;4993042;28;20269;-79
2023/05/25 04:16:06;;;;;;;19.00;16.57;;;;;;;8.79;100.00;101360.00;4993068;28;20588;-80
2023/05/25 04:18:33;;;;;;;25.70;17.60;;;;;;;8.68;100.00;101359.09;4994039;28;20232;-79
2023/05/25 04:21:00;;;;;;;27.73;16.97;;;;;;;8.61;100.00;101340.00;4993372;28;20228;-79
2023/05/25 04:23:26;;;;;;;20.30;16.30;;;;;;;8.65;100.00;101341.75;4993304;28;20205;-79
2023/05/25 04:25:54;;;;;;;24.43;17.87;;;;;;;8.60;100.00;101340.84;4993073;28;20215;-78
2023/05/25 04:28:21;;;;;;;25.63;16.27;;;;;;;8.54;100.00;101336.53;4994720;28;20265;-80
2023/05/25 04:30:47;;;;;;;23.03;17.57;;;;;;;8.55;100.00;101332.19;4993761;28;20696;-79
2023/05/25 04:33:14;;;;;;;23.27;17.17;;;;;;;8.49;100.00;101330.41;4993065;28;20749;-80
2023/05/25 04:35:40;;;;;;;29.63;18.10;;;;;;;8.65;100.00;101330.47;4993010;28;20259;-79
2023/05/25 04:38:06;;;;;;;19.10;16.57;;;;;;;8.71;100.00;101336.56;4994739;28;20727;-80
2023/05/25 04:40:34;;;;;;;25.27;16.70;;;;;;;8.70;100.00;101350.47;4995203;28;20235;-80
2023/05/25 04:43:02;;;;;;;25.50;18.47;;;;;;;8.90;100.00;101360.03;4994208;28;20261;-79
2023/05/25 04:45:30;;;;;;;23.43;16.30;;;;;;;8.93;100.00;101370.47;4994861;28;20308;-79
2023/05/25 04:48:00;;;;;;;24.87;16.20;;;;;;;8.92;100.00;101374.81;4995003;28;20692;-80
2023/05/25 04:50:26;;;;;;;18.67;16.67;;;;;;;8.86;100.00;101384.31;5016976;23;20588;-83
2023/05/25 04:52:53;;;;;;;24.20;16.30;;;;;;;9.00;100.00;101387.88;4975798;28;20223;-85
2023/05/25 04:55:19;;;;;;;17.93;15.23;;;;;;;9.19;100.00;101396.56;4977259;28;20211;-84
2023/05/25 04:57:46;;;;;;;20.77;15.70;;;;;;;9.22;100.00;101406.16;4977456;28;20581;-85
2023/05/25 05:00:15;;;;;;;20.43;15.13;;;;;;;9.38;100.00;101418.34;4977746;28;20234;-84
2023/05/25 05:02:42;;;;;;;17.90;13.90;;;;;;;9.52;100.00;101427.03;4958178;29;20212;-84
2023/05/25 05:05:09;;;;;;;21.90;15.30;;;;;;;9.43;100.00;101440.03;4958179;29;20212;-85
2023/05/25 05:07:36;;;;;;;29.07;16.43;;;;;;;9.10;100.00;101456.47;4957600;29;20279;-83
2023/05/25 05:10:02;;;;;;;20.40;16.20;;;;;;;8.95;100.00;101432.09;4957842;29;20233;-84
2023/05/25 05:12:28;;;;;;;23.63;17.10;;;;;;;8.91;100.00;101424.28;4957746;29;20291;-84
2023/05/25 05:14:55;;;;;;;19.23;16.17;;;;;;;8.85;100.00;101421.66;4957694;29;20249;-85
2023/05/25 05:17:25;;;;;;;25.63;17.33;;;;;;;8.79;100.00;101417.28;4957288;29;20213;-86
2023/05/25 05:19:51;;;;;;;19.37;17.00;;;;;;;8.74;100.00;101408.56;4956940;29;20324;-85
2023/05/25 05:22:17;;;;;;;28.30;17.20;;;;;;;8.69;100.00;101395.56;4956950;28;20278;-87
2023/05/25 05:24:44;;;;;;;25.60;18.37;;;;;;;8.85;100.00;101386.06;4957620;29;20220;-88
2023/05/25 05:27:11;;;;;;;19.43;16.37;;;;;;;9.12;100.00;101393.09;4957219;29;20682;-85
2023/05/25 05:29:37;;;;;;;18.83;15.70;;;;;;;9.32;100.00;101400.09;4957534;29;20261;-86
2023/05/25 05:32:03;;;;;;;19.77;15.00;;;;;;;9.30;100.00;101422.66;4957905;29;20239;-85
2023/05/25 05:34:31;;;;;;;23.30;16.07;;;;;;;9.28;100.00;101437.44;4957977;29;20273;-84
2023/05/25 05:36:58;;;;;;;19.10;15.60;;;;;;;9.37;100.00;101447.00;4957983;29;20212;-83
2023/05/25 05:39:25;;;;;;;20.17;16.47;;;;;;;9.48;100.00;101451.38;4958886;28;20226;-84
2023/05/25 05:41:52;;;;;;;20.20;14.60;;;;;;;9.66;100.00;101466.16;4958075;29;20628;-84
2023/05/25 05:44:18;;;;;;;19.93;15.40;;;;;;;9.62;100.00;101468.78;4958740;29;20218;-87
2023/05/25 05:46:45;;;;;;;16.20;14.43;;;;;;;9.83;100.00;101475.72;4958600;29;20249;-87
2023/05/25 05:49:11;;;;;;;19.10;13.97;;;;;;;9.37;100.00;101513.00;4958766;29;20627;-86
2023/05/25 05:51:39;;;;;;;20.77;14.70;;;;;;;9.54;100.00;101510.47;4958719;29;20289;-87
2023/05/25 05:54:06;;;;;;;19.53;14.17;;;;;;;9.43;100.00;101509.53;4959963;29;20208;-86
2023/05/25 05:56:32;;;;;;;18.50;15.60;;;;;;;9.56;100.00;101495.69;4958631;29;20208;-86
2023/05/25 05:59:00;;;;;;;17.43;15.07;;;;;;;9.79;100.00;101492.25;4959135;29;20237;-86
2023/05/25 06:01:27;;;;;;;14.40;12.90;;;;;;;9.62;100.00;101524.38;4958924;28;20259;-84
2023/05/25 06:03:54;;;;;;;20.63;14.53;;;;;;;9.43;100.00;101527.78;4959763;29;20207;-85
2023/05/25 06:06:21;;;;;;;18.57;14.63;;;;;;;9.65;100.00;101520.91;4959108;29;20208;-86
2023/05/25 06:08:49;;;;;;;19.00;13.77;;;;;;;9.61;100.00;101527.84;4959776;29;20213;-85
2023/05/25 06:11:15;;;;;;;17.43;13.20;;;;;;;9.71;100.00;101529.63;4959086;29;20322;-86
2023/05/25 06:13:41;;;;;;;16.07;12.73;;;;;;;9.63;100.00;101569.56;4959361;29;20643;-86
2023/05/25 06:16:08;;;;;;;15.30;12.57;;;;;;;9.70;100.00;101589.56;4958967;29;20267;-86
2023/05/25 06:18:34;;;;;;;14.90;12.70;;;;;;;9.60;100.00;101598.22;4959099;29;20208;-85
2023/05/25 06:21:01;;;;;;;14.53;13.03;;;;;;;9.56;100.00;101599.09;4959846;29;20243;-85
2023/05/25 06:23:27;;;;;;;13.73;12.23;;;;;;;9.58;100.00;101579.97;4959972;29;20208;-85
2023/05/25 06:25:55;;;;;;;14.60;12.43;;;;;;;9.59;100.00;101606.91;4958912;29;20215;-85
2023/05/25 06:28:21;;;;;;;14.73;12.40;;;;;;;9.66;100.00;101619.97;4959560;29;20281;-86
2023/05/25 06:30:48;;;;;;;18.70;12.33;;;;;;;9.55;100.00;101642.50;4959177;29;20261;-85
2023/05/25 06:33:15;;;;;;;18.63;13.93;;;;;;;9.44;100.00;101639.00;4959334;29;20209;-84
2023/05/25 06:35:41;;;;;;;14.13;12.63;;;;;;;9.49;100.00;101625.13;4957673;29;20211;-87
2023/05/25 06:38:10;;;;;;;16.27;13.43;;;;;;;9.56;100.00;101630.38;4957993;28;20211;-85
2023/05/25 06:40:36;;;;;;;16.97;12.30;;;;;;;9.54;100.00;101652.06;4957454;29;20243;-87
2023/05/25 06:43:04;;;;;;;15.87;13.43;;;;;;;9.38;100.00;101650.25;4957628;29;20254;-85
2023/05/25 06:45:32;;;;;;;14.97;13.40;;;;;;;9.56;100.00;101649.47;4957194;29;20200;-85
2023/05/25 06:47:58;;;;;;;16.33;14.53;;;;;;;9.51;100.00;101670.31;4957107;29;20288;-87
2023/05/25 06:50:25;;;;;;;14.77;13.27;;;;;;;9.65;100.00;101692.97;4956959;29;20265;-86
2023/05/25 06:52:51;;;;;;;17.17;14.07;;;;;;;9.58;100.00;101707.72;4957494;29;20294;-86
2023/05/25 06:55:23;;;;;;;16.97;15.23;;;;;;;9.56;100.00;101695.53;4956494;29;20219;-86
2023/05/25 06:57:54;;;;;;;20.53;14.83;;;;;;;9.63;100.00;101687.75;4956689;29;20215;-87
2023/05/25 07:00:22;;;;;;;17.27;14.07;;;;;;;9.72;100.00;101707.78;4956655;29;20319;-86
2023/05/25 07:02:49;;;;;;;23.63;15.23;;;;;;;9.67;100.00;101717.31;4956896;29;20294;-87
2023/05/25 07:05:15;;;;;;;18.80;14.67;;;;;;;9.68;100.00;101711.25;4955921;29;20210;-88
2023/05/25 07:07:42;;;;;;;20.27;16.10;;;;;;;9.76;100.00;101714.75;4955943;29;20213;-87
2023/05/25 07:10:09;;;;;;;20.30;16.20;;;;;;;9.69;100.00;101731.22;4956521;29;20211;-86
2023/05/25 07:12:35;;;;;;;24.87;15.77;;;;;;;9.77;100.00;101721.69;4955544;28;20233;-86
2023/05/25 07:15:02;;;;;;;17.30;15.50;;;;;;;9.95;100.00;101731.38;4956012;29;20235;-86
2023/05/25 07:17:30;;;;;;;30.70;17.47;;;;;;;10.02;98.59;101760.94;4956093;29;20222;-86
2023/05/25 07:19:56;;;;;;;19.47;14.83;;;;;;;9.71;97.74;101781.63;4955531;29;20277;-87
2023/05/25 07:22:23;;;;;;;17.53;15.63;;;;;;;9.64;100.00;101766.84;4955544;29;20256;-84
2023/05/25 07:24:49;;;;;;;17.33;15.33;;;;;;;9.40;100.00;101752.78;4956953;29;20208;-86
2023/05/25 07:27:16;;;;;;;17.13;15.30;;;;;;;9.29;100.00;101731.81;4958623;29;20203;-85
2023/05/25 07:29:43;;;;;;;24.73;17.80;;;;;;;9.51;100.00;101725.06;4958869;29;20213;-85
2023/05/25 07:32:09;;;;;;;19.40;17.27;;;;;;;9.62;100.00;101721.63;4958021;29;20232;-86
2023/05/25 07:34:37;;;;;;;21.43;16.17;;;;;;;9.61;100.00;101710.31;4964699;29;20215;-86
2023/05/25 07:37:03;;;;;;;19.87;16.63;;;;;;;9.57;100.00;101716.38;4956356;29;20219;-85
2023/05/25 07:39:30;;;;;;;22.57;16.73;;;;;;;9.74;100.00;101724.31;4955903;29;20298;-87
2023/05/25 07:41:56;;;;;;;24.73;17.17;;;;;;;9.74;100.00;101719.09;4955396;29;20233;-85
2023/05/25 07:44:23;;;;;;;24.07;17.93;;;;;;;9.80;100.00;101713.03;4955425;29;20214;-88
2023/05/25 07:49:30;;;;;;;21.43;17.07;;;;;;;9.90;98.24;101756.53;4953245;29;20238;-87
2023/05/25 07:51:57;;;;;;;27.20;17.83;;;;;;;9.90;99.61;101754.81;4954862;29;20235;-87
2023/05/25 07:54:24;;;;;;;28.10;18.80;;;;;;;9.72;99.55;101762.53;4955811;29;20202;-87
2023/05/25 07:56:50;;;;;;;23.20;18.10;;;;;;;9.85;100.00;101709.59;4955190;28;20270;-86
2023/05/25 07:59:16;;;;;;;25.80;18.07;;;;;;;9.63;100.00;101718.16;4955688;28;20242;-85
2023/05/25 08:01:43;;;;;;;23.07;18.47;;;;;;;9.51;100.00;101713.72;4957426;28;20236;-85
2023/05/25 08:04:09;;;;;;;26.23;19.90;;;;;;;9.69;100.00;101686.88;4956749;28;20207;-85
2023/05/25 08:06:35;;;;;;;22.43;18.70;;;;;;;9.84;100.00;101696.53;4955265;28;20591;-84
2023/05/25 08:09:09;;;;;;;28.47;20.73;;;;;;;10.16;100.00;101673.16;4956104;28;20215;-86
2023/05/25 08:11:36;;;;;;;23.90;18.37;;;;;;;9.96;99.90;101727.00;4956389;28;20226;-86
2023/05/25 08:14:02;;;;;;;26.37;19.77;;;;;;;10.18;100.00;101723.63;4604309;28;10000128;-85
2023/05/25 08:16:43;;;;;;;19.83;17.77;;;;;;;10.43;100.00;101711.53;4933785;29;20247;-88
2023/05/25 08:19:10;;;;;;;19.13;16.47;;;;;;;10.62;100.00;101722.88;4944513;29;20225;-85
2023/05/25 08:21:40;;;;;;;18.23;15.97;;;;;;;10.37;98.09;101776.78;4952859;29;20232;-85
2023/05/25 08:24:17;;;;;;;18.13;16.20;;;;;;;10.44;98.63;101764.63;4953335;28;20223;-85
2023/05/25 08:26:52;;;;;;;20.57;16.17;;;;;;;10.73;97.50;101796.03;4955216;28;20223;-85
2023/05/25 08:29:27;;;;;;;18.77;15.67;;;;;;;10.49;95.04;101838.63;4955155;29;20273;-85
2023/05/25 08:31:58;;;;;;;17.93;16.03;;;;;;;10.57;95.37;101846.47;4954778;29;20728;-85
2023/05/25 08:34:24;;;;;;;18.50;16.13;;;;;;;10.81;96.13;101824.78;4954910;29;20853;-86
2023/05/25 08:36:51;;;;;;;17.40;15.80;;;;;;;10.42;95.74;101850.75;4955735;29;20211;-86
2023/05/25 08:39:23;;;;;;;17.33;14.77;;;;;;;10.32;96.17;101851.56;4956197;29;20219;-85
2023/05/25 08:41:50;;;;;;;17.93;15.57;;;;;;;10.32;95.67;101838.53;4955534;29;20219;-85
2023/05/25 08:44:22;;;;;;;18.23;15.83;;;;;;;10.43;96.20;101838.59;4955056;29;20212;-87
2023/05/25 08:46:48;;;;;;;19.47;16.50;;;;;;;10.42;96.21;101832.47;4954449;28;20596;-86
2023/05/25 08:49:16;;;;;;;18.77;15.50;;;;;;;10.70;97.00;101817.81;4955071;29;20766;-86
2023/05/25 08:51:52;;;;;;;17.87;15.93;;;;;;;10.77;96.89;101812.59;4953990;29;20239;-85
2023/05/25 08:54:25;;;;;;;21.33;15.23;;;;;;;10.57;96.67;101828.19;4954891;29;20297;-87
2023/05/25 08:56:53;;;;;;;17.83;16.00;;;;;;;10.63;96.24;101825.59;4954586;29;20223;-87
2023/05/25 08:59:28;;;;;;;19.23;15.57;;;;;;;10.57;95.37;101836.91;4956083;29;20210;-87
2023/05/25 09:02:07;;;;;;;17.27;15.07;;;;;;;10.78;97.02;101814.31;4957301;28;20235;-88
2023/05/25 09:04:37;;;;;;;19.83;14.93;;;;;;;10.66;95.59;101838.66;4956994;29;20472;-88
2023/05/25 09:07:04;;;;;;;17.37;15.47;;;;;;;10.98;96.11;101815.25;4956305;28;20211;-87
2023/05/25 09:09:34;;;;;;;20.53;15.80;;;;;;;10.92;93.57;101855.28;4957352;29;20218;-89
2023/05/25 09:12:08;;;;;;;23.77;16.37;;;;;;;11.12;93.90;101855.34;4955895;29;20240;-88
2023/05/25 09:14:36;;;;;;;16.77;15.07;;;;;;;11.32;92.68;101873.66;4956838;29;20261;-88
2023/05/25 09:17:02;;;;;;;15.27;13.87;;;;;;;11.17;92.07;101896.28;4955533;29;20222;-88
2023/05/25 09:19:29;;;;;;;20.57;14.40;;;;;;;11.22;92.11;101912.81;4956823;29;20338;-88
2023/05/25 09:21:55;;;;;;;16.30;14.40;;;;;;;11.01;91.13;101931.94;4956460;29;20238;-86
2023/05/25 09:24:22;;;;;;;18.60;13.57;;;;;;;11.13;92.69;101906.72;4956692;29;20202;-87
2023/05/25 09:26:51;;;;;;;14.87;13.37;;;;;;;11.27;92.50;101905.88;4956757;29;20253;-87
2023/05/25 09:29:17;;;;;;;16.57;13.77;;;;;;;11.39;92.61;101905.88;4960792;29;20268;-87
2023/05/25 09:31:51;;;;;;;16.00;13.77;;;;;;;11.39;92.93;101903.28;4962077;29;20236;-88
2023/05/25 09:34:17;;;;;;;15.33;13.77;;;;;;;11.36;92.68;101905.00;4964026;28;20212;-87
2023/05/25 09:36:44;;;;;;;16.70;14.50;;;;;;;11.59;92.61;101911.13;4964703;28;20543;-88
2023/05/25 09:39:12;;;;;;;16.50;13.47;;;;;;;11.76;90.47;101936.44;4967377;29;20206;-87
2023/05/25 09:41:41;;;;;;;15.00;13.40;;;;;;;12.00;90.93;101949.56;4963066;29;20244;-88
2023/05/25 09:44:09;;;;;;;15.80;11.70;;;;;;;12.04;89.26;101960.91;4960542;29;20266;-87
2023/05/25 09:46:37;;;;;;;18.57;11.23;;;;;;;11.91;89.37;101975.72;4958727;29;20694;-88
2023/05/25 09:49:08;;;;;;;12.67;11.37;;;;;;;12.06;88.68;101993.19;4955865;28;20215;-86
2023/05/25 09:51:40;;;;;;;18.60;11.87;;;;;;;12.03;87.87;102006.25;4956419;28;20777;-87
2023/05/25 09:54:10;;;;;;;12.03;10.87;;;;;;;11.90;87.97;102014.09;4956719;29;20214;-87
2023/05/25 09:56:36;;;;;;;17.30;11.67;;;;;;;12.02;89.06;101994.06;4954855;29;20637;-88
2023/05/25 09:59:03;;;;;;;13.13;11.57;;;;;;;11.96;88.66;102004.53;4955389;29;20221;-88
2023/05/25 10:01:34;;;;;;;12.10;9.77;;;;;;;11.85;88.93;101997.50;4954900;29;20228;-87
2023/05/25 10:04:01;;;;;;;11.33;10.07;;;;;;;11.91;90.31;101984.47;4955498;28;20272;-87
2023/05/25 10:06:30;;;;;;;12.00;10.57;;;;;;;11.86;91.74;101948.66;4955476;29;20214;-88
2023/05/25 10:08:58;;;;;;;11.03;9.93;;;;;;;11.98;91.27;101932.97;4954956;29;20215;-87
2023/05/25 10:11:26;;;;;;;12.77;10.73;;;;;;;12.19;90.71;101942.56;4954264;29;20320;-88
2023/05/25 10:13:54;;;;;;;11.03;9.93;;;;;;;12.13;88.96;101968.75;4954947;29;20224;-88
2023/05/25 10:16:26;;;;;;;15.97;11.80;;;;;;;12.27;87.93;101981.84;4954508;29;20215;-87
2023/05/25 10:19:01;;;;;;;11.63;10.40;;;;;;;12.40;87.69;102003.63;4956148;29;20581;-87
2023/05/25 10:21:30;;;;;;;11.10;10.00;;;;;;;12.75;85.11;102032.38;4955085;29;20276;-86
2023/05/25 10:24:04;;;;;;;11.13;9.83;;;;;;;12.77;83.75;102084.78;4955241;29;20273;-86
2023/05/25 10:26:34;;;;;;;11.53;10.37;;;;;;;12.90;84.04;102095.25;4955438;29;20586;-88
2023/05/25 10:29:04;;;;;;;10.17;9.17;;;;;;;13.10;82.15;102108.31;4954996;28;20686;-88
2023/05/25 10:31:32;;;;;;;13.40;9.53;;;;;;;13.28;81.64;102138.00;4953917;28;20231;-87
2023/05/25 10:34:02;;;;;;;11.90;10.70;;;;;;;13.16;81.26;102159.88;4954640;28;20301;-86
2023/05/25 10:36:29;;;;;;;10.80;9.70;;;;;;;13.33;81.37;102162.47;4954956;29;20242;-85
2023/05/25 10:38:56;;;;;;;11.20;10.13;;;;;;;13.02;83.29;102157.25;4956062;29;20214;-85
2023/05/25 10:41:23;;;;;;;11.57;10.47;;;;;;;13.14;82.89;102145.00;4955916;29;20247;-84
2023/05/25 10:43:52;;;;;;;11.67;10.40;;;;;;;13.18;83.25;102129.25;4956359;29;20275;-85
2023/05/25 10:46:19;;;;;;;12.00;10.73;;;;;;;13.19;82.64;102138.88;4953943;29;20212;-84
2023/05/25 10:48:47;;;;;;;13.70;10.60;;;;;;;13.14;83.62;102124.91;4955321;28;20220;-83
2023/05/25 10:51:14;;;;;;;13.70;10.57;;;;;;;13.03;82.95;102134.53;4955659;29;20251;-85
2023/05/25 10:53:43;;;;;;;10.63;9.70;;;;;;;12.95;81.70;102139.78;4956645;29;20247;-82
2023/05/25 10:56:12;;;;;;;13.93;9.57;;;;;;;13.06;81.65;102145.00;4956497;29;20208;-84
2023/05/25 10:58:42;;;;;;;11.53;9.57;;;;;;;13.11;81.13;102151.13;4956561;29;20232;-84
2023/05/25 11:01:10;;;;;;;11.77;8.67;;;;;;;13.29;79.95;102145.84;4955877;29;20263;-84
2023/05/25 11:03:48;;;;;;;8.70;7.90;;;;;;;13.55;79.94;102167.66;4956007;28;20262;-83
2023/05/25 11:06:17;;;;;;;10.70;8.53;;;;;;;13.51;79.86;102175.50;4956551;29;20207;-83
2023/05/25 11:08:55;;;;;;;10.13;9.13;;;;;;;13.48;78.54;102208.78;5085759;27;20576;-76
2023/05/25 11:11:22;;;;;;;11.70;8.43;;;;;;;13.65;79.36;102200.84;5086032;28;20504;-76
2023/05/25 11:13:49;;;;;;;8.70;7.90;;;;;;;13.84;78.17;102206.91;5079980;28;20283;-76
2023/05/25 11:16:21;;;;;;;10.83;8.20;;;;;;;13.62;77.03;102251.59;5065836;28;20208;-76